Aérodrome :
LOGIN :

S'inscrire | Disclaimer

   EN    FR    IT 

 










Légende :    VFR   VFR Marginal   IFR   IFR Intensif   IFR Très Intensif
Visi : 
Plafond : 
>= 8 km
>= 3000ft
5 à 8 km
1000 à 3000 ft
1500m à 5 km
500 à 1000 ft
800 à 1500m
200 à 500 ft
< 800m
< 200 ft
Symboles :   Orages  Brouillard  Fortes neiges  Fortes précipitations  Vent > 20 kt
SIGMETs :   Divers  Orages  Givrage  Turbulence  Onde Orograph.  Cendres Volcan.






- Altitude de l'aérodrome : 32 ft
- Code IATA : LKZ


EGUL - RAF Lakenheath

DERNIER METAR :
  • 262356Z AUTO 00000KT 9999 CLR 13/09 A3059 RMK AO2 SLP362 T01280087 10222 20128 402430078 53003 $

METARs EXPIRÉS :
  • 262256Z AUTO 00000KT 9999 CLR 15/09 A3058 RMK AO2 SLP359 T01480092 $
  • 262156Z AUTO 10004KT 9999 CLR 16/10 A3057 RMK AO2 SLP355 T01610095 $

TAF TAF EGUL
Valide du 26 à 14h jusqu'au 27 à 20h UTC


261400Z 2614/2720 36009KT 9999 BKN050 QNH3053INS
BECMG 2618/2619 02006KT 9999 BKN030 QNH3055INS
BECMG 2716/2717 03010G15KT 9999 BKN025 QNH3056INS TX23/2615Z TN07/2704Z LAST NO AMDS AFT 2614 NEXT 2706



MET'MAP, la Météo Aéronautique d'un coup d'oeil ! - Copyright ORBIFLY Décembre 2007 - Disclaimer

ORBIFLY MET'MAP TEAM :

Programmation & Développement : Alexandra Zaïnal
Sur une idée originale de : Baudouin d'Aumeries
Assistance à la programmation : Marc-Olivier Méhu
Soutien technique & logistique : Manuel Goepfert

Contact : metmap@orbifly.com




SOURCES & CREDITS :

   NOAA